createdAt,value
2022-08-09T00:02:06.688Z,34.93
2022-08-09T00:05:02.904Z,34.84
2022-08-09T00:08:00.023Z,34.89
2022-08-09T00:10:47.878Z,34.93
2022-08-09T00:13:33.772Z,34.92
2022-08-09T00:16:26.364Z,34.87
2022-08-09T00:19:22.877Z,35.25
2022-08-09T00:22:09.297Z,35.22
2022-08-09T00:24:57.161Z,35.37
2022-08-09T00:27:43.456Z,35.01
2022-08-09T00:30:34.235Z,35.18
2022-08-09T00:33:20.341Z,35.12
2022-08-09T00:36:19.929Z,35.31
2022-08-09T00:39:05.736Z,35.17
2022-08-09T00:44:11.477Z,35.26
2022-08-09T00:45:14.840Z,35.30
2022-08-09T00:48:03.371Z,35.29
2022-08-09T00:50:52.126Z,35.46
2022-08-09T00:53:39.825Z,35.63
2022-08-09T00:56:25.897Z,35.36
2022-08-09T00:59:12.266Z,35.55
2022-08-09T01:02:06.457Z,35.74
2022-08-09T01:05:13.923Z,35.55
2022-08-09T01:08:49.406Z,35.83
2022-08-09T01:11:56.174Z,35.82
2022-08-09T01:14:52.690Z,35.88
2022-08-09T01:17:45.289Z,35.78
2022-08-09T01:20:43.229Z,36.17
2022-08-09T01:24:04.873Z,36.10
2022-08-09T01:27:08.212Z,36.30
2022-08-09T01:29:58.204Z,36.22
2022-08-09T01:32:46.589Z,36.16
2022-08-09T01:35:38.999Z,36.27
2022-08-09T01:38:30.130Z,36.52
2022-08-09T01:41:26.343Z,36.59
2022-08-09T01:44:16.117Z,36.43
2022-08-09T01:47:06.296Z,36.63
2022-08-09T01:49:58.557Z,36.51
2022-08-09T01:52:45.185Z,36.60
2022-08-09T01:55:32.493Z,36.86
2022-08-09T01:58:18.904Z,36.81
2022-08-09T02:01:11.497Z,36.78
2022-08-09T02:04:05.534Z,36.83
2022-08-09T02:07:15.474Z,37.05
2022-08-09T02:10:30.471Z,36.88
2022-08-09T02:13:17.112Z,36.89
2022-08-09T02:16:05.081Z,36.87
2022-08-09T02:18:52.082Z,36.99
2022-08-09T02:21:40.711Z,37.11
2022-08-09T02:24:30.328Z,37.08
2022-08-09T02:27:18.670Z,37.22
2022-08-09T02:30:06.160Z,37.44
2022-08-09T02:32:53.880Z,37.40
2022-08-09T02:36:02.744Z,37.48
2022-08-09T02:38:58.870Z,37.55
2022-08-09T02:41:48.414Z,37.69
2022-08-09T02:44:47.916Z,37.87
2022-08-09T02:47:57.391Z,38.29
2022-08-09T02:50:51.895Z,37.98
2022-08-09T02:53:59.712Z,37.87
2022-08-09T02:56:51.085Z,38.09
2022-08-09T02:59:40.285Z,37.96
2022-08-09T03:02:58.313Z,38.16
2022-08-09T03:05:46.590Z,38.12
2022-08-09T03:08:34.684Z,38.11
2022-08-09T03:12:06.515Z,38.25
2022-08-09T03:14:31.756Z,38.37
2022-08-09T03:17:26.628Z,38.18
2022-08-09T03:20:14.417Z,38.52
2022-08-09T03:23:14.969Z,38.58
2022-08-09T03:26:07.094Z,38.80
2022-08-09T03:28:55.477Z,38.49
2022-08-09T03:31:59.502Z,44.59
2022-08-09T03:34:48.074Z,40.30
2022-08-09T03:37:55.528Z,40.31
2022-08-09T03:40:40.321Z,39.79
2022-08-09T03:43:31.517Z,39.70
2022-08-09T03:46:18.678Z,39.63
2022-08-09T03:49:09.076Z,39.73
2022-08-09T03:52:00.132Z,39.81
2022-08-09T03:54:49.775Z,39.65
2022-08-09T03:57:44.737Z,40.41
2022-08-09T04:00:44.537Z,39.84
2022-08-09T04:03:45.833Z,39.83
2022-08-09T04:06:32.641Z,40.50
2022-08-09T04:09:48.214Z,40.20
2022-08-09T04:12:47.680Z,40.37
2022-08-09T04:15:52.520Z,40.28
2022-08-09T04:18:42.728Z,40.28
2022-08-09T04:21:31.734Z,40.68
2022-08-09T04:24:27.573Z,40.49
2022-08-09T04:27:13.666Z,40.54
2022-08-09T04:30:00.403Z,40.55
2022-08-09T04:32:48.284Z,40.54
2022-08-09T04:35:34.461Z,40.78
2022-08-09T04:38:21.093Z,40.96
2022-08-09T04:41:11.815Z,40.69
2022-08-09T04:44:07.275Z,40.78
2022-08-09T04:46:58.909Z,40.92
2022-08-09T04:49:55.094Z,40.99
2022-08-09T04:52:42.217Z,40.97
2022-08-09T04:55:28.592Z,41.05
2022-08-09T04:58:27.564Z,41.03
2022-08-09T05:01:16.238Z,41.20
2022-08-09T05:04:04.851Z,41.23
2022-08-09T05:06:50.797Z,41.24
2022-08-09T05:09:45.439Z,41.21
2022-08-09T05:12:36.415Z,41.29
2022-08-09T05:15:43.105Z,41.29
2022-08-09T05:18:38.483Z,41.42
2022-08-09T05:21:47.165Z,41.56
2022-08-09T05:24:38.675Z,41.33
2022-08-09T05:27:24.571Z,41.45
2022-08-09T05:30:12.009Z,41.18
2022-08-09T05:33:01.851Z,41.32
2022-08-09T05:35:50.874Z,41.60
2022-08-09T05:38:39.133Z,41.81
2022-08-09T05:41:25.612Z,41.62
2022-08-09T05:44:11.474Z,41.70
2022-08-09T05:46:57.604Z,41.87
2022-08-09T05:50:25.456Z,41.72
2022-08-09T05:52:53.649Z,42.35
2022-08-09T05:55:40.101Z,41.82
2022-08-09T05:58:26.731Z,41.88
2022-08-09T06:01:16.025Z,41.96
2022-08-09T06:04:05.815Z,41.95
2022-08-09T06:06:52.134Z,42.19
2022-08-09T06:09:54.780Z,42.14
2022-08-09T06:12:44.596Z,42.26
2022-08-09T06:33:40.699Z,44.95
2022-08-09T06:36:30.022Z,44.73
2022-08-09T06:39:16.566Z,44.55
2022-08-09T06:42:08.853Z,44.20
2022-08-09T06:44:58.573Z,43.93
2022-08-09T06:47:45.306Z,43.89
2022-08-09T11:46:57.114Z,48.95
2022-08-09T11:50:56.053Z,45.39
2022-08-09T11:53:28.167Z,44.55
2022-08-09T11:56:20.974Z,43.61
2022-08-09T11:59:30.473Z,43.74
2022-08-09T12:02:37.510Z,43.18
2022-08-09T12:05:42.138Z,42.74
2022-08-09T12:08:33.010Z,42.54
2022-08-09T12:11:22.976Z,42.18
2022-08-09T12:14:28.784Z,42.16
2022-08-09T12:17:27.850Z,41.75
2022-08-09T12:20:27.705Z,41.84
2022-08-09T12:23:13.697Z,42.06
2022-08-09T12:26:11.235Z,41.57
2022-08-09T12:29:12.889Z,41.50
2022-08-09T12:32:12.553Z,40.46
2022-08-09T12:35:04.914Z,39.86
2022-08-09T12:37:56.915Z,39.87
2022-08-09T12:40:51.807Z,39.38
2022-08-09T12:44:05.674Z,39.19
2022-08-09T12:46:49.234Z,39.52
2022-08-09T12:49:36.980Z,39.75
2022-08-09T12:52:42.822Z,38.76
2022-08-09T12:56:11.478Z,38.10
2022-08-09T12:58:42.851Z,39.10
2022-08-09T13:01:29.451Z,38.35
2022-08-09T13:04:37.988Z,38.45
2022-08-09T13:07:28.748Z,38.17
2022-08-09T13:10:34.788Z,38.26
2022-08-09T13:14:11.890Z,36.71
2022-08-09T13:16:44.927Z,38.60
2022-08-09T13:20:07.365Z,37.98
2022-08-09T13:23:01.647Z,37.64
2022-08-09T13:25:57.333Z,37.77
2022-08-09T13:29:06.524Z,38.17
2022-08-09T13:32:15.991Z,37.91
2022-08-09T13:35:04.412Z,37.76
2022-08-09T13:37:57.778Z,38.27
2022-08-09T13:41:50.896Z,37.36
2022-08-09T13:43:51.030Z,37.37
2022-08-09T13:47:16.477Z,36.98
2022-08-09T13:49:57.124Z,36.53
2022-08-09T13:52:47.896Z,36.39
2022-08-09T13:55:34.001Z,36.29
2022-08-09T13:58:23.099Z,36.88
2022-08-09T14:01:13.496Z,36.42
2022-08-09T14:04:23.627Z,36.03
2022-08-09T14:07:10.385Z,35.39
2022-08-09T14:09:56.731Z,35.67
2022-08-09T14:12:44.294Z,35.00
2022-08-09T14:16:10.604Z,34.79
2022-08-09T14:18:36.971Z,34.90
2022-08-09T14:21:24.318Z,34.31
2022-08-09T14:24:22.303Z,32.41
2022-08-09T14:27:20.354Z,34.25
2022-08-09T14:30:41.378Z,33.91
2022-08-09T14:33:14.043Z,33.78
2022-08-09T14:36:20.916Z,33.48
2022-08-09T14:39:08.965Z,33.27
2022-08-09T14:41:55.315Z,33.09
2022-08-09T14:44:48.388Z,33.13
2022-08-09T14:47:45.290Z,33.26
2022-08-09T14:50:37.330Z,32.82
2022-08-09T14:53:23.900Z,33.28
2022-08-09T14:56:09.798Z,33.19
2022-08-09T14:59:00.573Z,33.11
2022-08-09T15:01:47.065Z,33.19
2022-08-09T15:04:33.488Z,33.33
2022-08-09T15:07:19.653Z,33.31
2022-08-09T15:10:10.841Z,33.03
2022-08-09T15:13:03.180Z,33.11
2022-08-09T15:15:49.927Z,33.21
2022-08-09T15:18:37.969Z,33.58
2022-08-09T15:21:57.534Z,33.29
2022-08-09T15:24:31.095Z,32.96
2022-08-09T15:27:17.127Z,33.00
2022-08-09T15:30:56.453Z,33.23
2022-08-09T15:33:23.318Z,33.12
2022-08-09T15:36:18.902Z,33.38
2022-08-09T15:39:13.702Z,33.52
2022-08-09T15:42:01.009Z,33.66
2022-08-09T15:44:47.154Z,33.24
2022-08-09T15:47:51.437Z,33.34
2022-08-09T15:50:43.719Z,33.46
2022-08-09T15:54:04.880Z,33.21
2022-08-09T15:56:37.419Z,32.62
2022-08-09T15:59:23.664Z,32.20
2022-08-09T16:02:09.840Z,32.10
2022-08-09T16:04:59.403Z,32.27
2022-08-09T16:07:51.096Z,31.66
2022-08-09T16:10:56.383Z,31.94
2022-08-09T16:14:03.275Z,31.58
2022-08-09T16:16:49.029Z,31.49
2022-08-09T16:19:49.355Z,31.34
2022-08-09T16:22:48.867Z,31.58
2022-08-09T16:25:39.534Z,31.47
2022-08-09T16:28:26.747Z,31.57
2022-08-09T16:31:16.066Z,31.36
2022-08-09T16:34:04.069Z,31.17
2022-08-09T16:36:50.793Z,31.36
2022-08-09T16:39:48.001Z,31.02
2022-08-09T16:42:45.270Z,31.20
2022-08-09T16:45:32.530Z,31.12
2022-08-09T16:48:42.030Z,30.69
2022-08-09T16:51:24.905Z,30.65
2022-08-09T16:54:34.224Z,30.97
2022-08-09T16:57:16.805Z,31.10
2022-08-09T17:00:04.638Z,30.59
2022-08-09T17:02:50.845Z,31.28
2022-08-09T17:06:07.079Z,31.02
2022-08-09T17:09:03.211Z,31.01
2022-08-09T17:11:52.538Z,31.07
2022-08-09T17:14:39.175Z,31.38
2022-08-09T17:17:50.597Z,31.12
2022-08-09T17:20:46.462Z,31.73
2022-08-09T17:24:21.328Z,31.87
2022-08-09T17:26:41.391Z,32.08
2022-08-09T17:29:31.378Z,32.17
2022-08-09T17:32:20.424Z,32.42
2022-08-09T17:35:13.310Z,32.55
2022-08-09T17:38:02.738Z,33.48
2022-08-09T17:41:06.398Z,33.48
2022-08-09T17:44:42.268Z,33.81
2022-08-09T17:46:59.124Z,33.38
2022-08-09T17:49:54.283Z,33.80
2022-08-09T17:52:43.999Z,33.97
2022-08-09T17:55:49.618Z,33.73
2022-08-09T17:58:37.527Z,34.13
2022-08-09T18:01:24.051Z,33.84
2022-08-09T18:04:10.148Z,34.04
2022-08-09T18:06:59.229Z,33.80
2022-08-09T18:09:45.444Z,34.07
2022-08-09T18:13:43.210Z,34.15
2022-08-09T18:16:08.784Z,34.65
2022-08-09T18:18:55.436Z,34.49
2022-08-09T18:21:42.173Z,34.80
2022-08-09T18:24:28.342Z,34.84
2022-08-09T18:27:49.195Z,35.42
2022-08-09T18:30:41.837Z,35.27
2022-08-09T18:33:29.704Z,35.80
2022-08-09T18:36:25.934Z,36.10
2022-08-09T18:39:18.856Z,36.23
2022-08-09T18:42:08.072Z,36.22
2022-08-09T18:44:55.187Z,36.27
2022-08-09T18:47:41.896Z,36.45
2022-08-09T18:50:33.806Z,36.84
2022-08-09T18:53:22.419Z,36.91
2022-08-09T18:56:09.394Z,37.15
2022-08-09T18:58:56.455Z,37.05
2022-08-09T19:01:46.353Z,37.15
2022-08-09T19:04:34.764Z,37.39
2022-08-09T19:07:21.251Z,37.31
2022-08-09T19:10:17.073Z,37.30
2022-08-09T19:13:22.539Z,37.39
2022-08-09T19:16:20.868Z,37.75
2022-08-09T19:19:21.508Z,37.66
2022-08-09T19:22:12.384Z,40.19
2022-08-09T19:25:11.679Z,38.45
2022-08-09T19:28:12.999Z,38.91
2022-08-09T19:30:59.934Z,39.27
2022-08-09T19:33:45.822Z,40.08
2022-08-09T19:36:32.797Z,39.71
2022-08-09T19:39:21.040Z,39.86
2022-08-09T19:42:31.050Z,39.73
2022-08-09T19:45:17.711Z,40.88
2022-08-09T19:48:04.155Z,40.42
2022-08-09T19:50:54.402Z,41.21
2022-08-09T19:53:46.990Z,41.52
2022-08-09T19:56:35.600Z,42.06
2022-08-09T19:59:59.595Z,41.13
2022-08-09T20:04:17.215Z,41.49
2022-08-09T20:05:46.913Z,41.89
2022-08-09T20:08:36.766Z,43.48
2022-08-09T20:11:26.824Z,45.92
2022-08-09T20:14:15.648Z,51.22
2022-08-09T20:17:02.468Z,43.48
2022-08-09T20:19:54.727Z,47.71
2022-08-09T20:22:42.914Z,43.86
2022-08-09T20:25:38.292Z,42.99
2022-08-09T20:28:48.231Z,47.24
2022-08-09T20:31:51.200Z,43.97
2022-08-09T20:34:43.892Z,43.45
2022-08-09T20:37:37.757Z,43.26
2022-08-09T20:40:38.445Z,44.03
2022-08-09T20:43:27.509Z,43.56
2022-08-09T20:46:33.246Z,43.39
2022-08-09T20:49:21.006Z,43.09
2022-08-09T20:52:10.737Z,43.21
2022-08-09T20:55:01.671Z,43.20
2022-08-09T20:58:08.081Z,42.96
2022-08-09T21:01:14.063Z,43.02
2022-08-09T21:05:49.038Z,43.10
2022-08-09T21:07:13.152Z,44.09
2022-08-09T21:10:00.278Z,43.21
2022-08-09T21:15:54.281Z,43.29
2022-08-09T21:20:02.225Z,43.70
2022-08-09T21:21:52.901Z,43.31
2022-08-09T21:25:01.360Z,43.18
2022-08-09T21:27:51.815Z,43.43
2022-08-09T21:30:40.747Z,43.56
2022-08-09T21:33:27.432Z,43.29
2022-08-09T21:36:28.097Z,43.85
2022-08-09T21:39:22.120Z,43.48
2022-08-09T21:42:14.580Z,43.69
2022-08-09T21:45:00.725Z,43.46
2022-08-09T21:47:51.040Z,43.46
2022-08-09T21:50:38.865Z,43.60
2022-08-09T21:53:40.721Z,43.52
2022-08-09T21:56:43.199Z,43.68
2022-08-09T21:59:42.760Z,43.81
2022-08-09T22:02:36.078Z,43.50
2022-08-09T22:05:23.716Z,43.85
2022-08-09T22:08:24.439Z,44.11
2022-08-09T22:12:06.365Z,44.21
2022-08-09T22:14:16.727Z,44.07
2022-08-09T22:17:05.679Z,44.28
2022-08-09T22:19:59.321Z,43.96
2022-08-09T22:22:47.290Z,44.27
2022-08-09T22:26:07.647Z,44.50
2022-08-09T22:28:47.358Z,44.80
2022-08-09T22:31:50.474Z,44.71
2022-08-09T22:34:43.223Z,44.54
2022-08-09T22:37:40.404Z,44.84
2022-08-09T22:40:28.413Z,44.89
2022-08-09T22:43:17.047Z,44.89
2022-08-09T22:48:18.806Z,44.96
2022-08-09T22:49:27.191Z,44.98
2022-08-09T22:52:17.663Z,45.13
2022-08-09T22:55:07.301Z,45.17
2022-08-09T22:57:59.894Z,45.20
2022-08-09T23:00:46.740Z,45.11
2022-08-09T23:04:04.134Z,45.30
2022-08-09T23:06:59.741Z,45.19
2022-08-09T23:09:46.818Z,45.33
2022-08-09T23:12:32.910Z,45.20
2022-08-09T23:15:19.163Z,45.46
2022-08-09T23:18:05.358Z,45.69
2022-08-09T23:20:51.199Z,45.73
2022-08-09T23:23:37.199Z,45.74
2022-08-09T23:26:23.320Z,46.00
2022-08-09T23:29:13.446Z,45.89
2022-08-09T23:31:59.695Z,45.85
2022-08-09T23:34:45.823Z,45.85
2022-08-09T23:37:31.908Z,46.03
2022-08-09T23:40:18.300Z,46.27
2022-08-09T23:43:04.173Z,46.17
2022-08-09T23:45:49.983Z,46.24
2022-08-09T23:48:36.022Z,46.49
2022-08-09T23:51:22.073Z,46.38
2022-08-09T23:54:08.524Z,46.49
2022-08-09T23:56:56.252Z,46.79
